createdAt,value
2018-04-17T00:01:13.724Z,94.50
2018-04-17T00:03:43.558Z,94.70
2018-04-17T00:06:13.370Z,94.50
2018-04-17T00:08:43.209Z,94.50
2018-04-17T00:11:12.277Z,94.50
2018-04-17T00:13:41.329Z,94.50
2018-04-17T00:16:10.426Z,94.40
2018-04-17T00:18:39.489Z,94.40
2018-04-17T00:21:08.570Z,94.40
2018-04-17T00:23:37.605Z,94.50
2018-04-17T00:26:06.684Z,94.40
2018-04-17T00:28:35.716Z,94.50
2018-04-17T00:31:05.555Z,94.60
2018-04-17T00:33:34.633Z,94.60
2018-04-17T00:36:04.432Z,94.40
2018-04-17T00:38:34.307Z,94.80
2018-04-17T00:41:03.353Z,94.40
2018-04-17T00:43:33.164Z,94.30
2018-04-17T00:46:02.999Z,94.40
2018-04-17T00:48:32.039Z,94.40
2018-04-17T00:51:01.100Z,94.40
2018-04-17T00:53:47.940Z,94.40
2018-04-17T00:56:17.004Z,94.40
2018-04-17T00:58:46.064Z,94.20
2018-04-17T01:01:15.868Z,94.20
2018-04-17T01:03:45.692Z,94.60
2018-04-17T01:06:15.499Z,94.40
2018-04-17T01:08:45.327Z,94.40
2018-04-17T01:11:14.368Z,94.40
2018-04-17T01:13:43.449Z,94.40
2018-04-17T01:16:12.506Z,94.40
2018-04-17T01:18:42.325Z,94.50
2018-04-17T01:21:11.368Z,94.40
2018-04-17T01:23:40.436Z,94.40
2018-04-17T01:26:09.500Z,94.40
2018-04-17T01:28:39.303Z,94.60
2018-04-17T01:31:09.150Z,94.70
2018-04-17T01:33:38.276Z,94.70
2018-04-17T01:36:07.311Z,94.60
2018-04-17T01:38:37.136Z,94.40
2018-04-17T01:41:06.191Z,94.40
2018-04-17T01:43:35.255Z,94.40
2018-04-17T01:46:04.295Z,94.40
2018-04-17T01:48:34.128Z,94.30
2018-04-17T01:51:03.161Z,94.30
2018-04-17T01:53:32.227Z,94.30
2018-04-17T01:56:01.326Z,94.30
2018-04-17T01:58:30.429Z,94.20
2018-04-17T02:00:59.507Z,94.10
2018-04-17T02:03:28.593Z,94.20
2018-04-17T02:05:58.401Z,94.30
2018-04-17T02:08:28.282Z,94.10
2018-04-17T02:10:57.354Z,94.10
2018-04-17T02:13:26.474Z,94.00
2018-04-17T02:15:55.513Z,94.10
2018-04-17T02:18:24.582Z,93.90
2018-04-17T02:20:54.406Z,94.50
2018-04-17T02:23:24.332Z,94.20
2018-04-17T02:25:53.397Z,94.30
2018-04-17T02:28:22.444Z,94.30
2018-04-17T02:30:51.505Z,94.00
2018-04-17T02:33:21.347Z,94.20
2018-04-17T02:35:50.396Z,94.20
2018-04-17T02:38:20.236Z,94.40
2018-04-17T02:40:50.029Z,94.50
2018-04-17T02:43:19.872Z,94.40
2018-04-17T02:45:48.948Z,94.40
2018-04-17T02:48:18.757Z,94.70
2018-04-17T02:50:48.602Z,94.50
2018-04-17T02:53:17.644Z,94.40
2018-04-17T02:55:46.698Z,94.40
2018-04-17T02:58:15.764Z,94.20
2018-04-17T03:00:44.839Z,94.20
2018-04-17T03:03:14.650Z,94.30
2018-04-17T03:05:44.482Z,94.40
2018-04-17T03:08:13.508Z,94.40
2018-04-17T03:10:42.588Z,94.50
2018-04-17T03:13:11.670Z,94.50
2018-04-17T03:15:40.746Z,94.60
2018-04-17T03:18:10.563Z,94.80
2018-04-17T03:20:39.639Z,94.80
2018-04-17T03:23:09.451Z,94.80
2018-04-17T03:25:39.278Z,94.80
2018-04-17T03:28:09.093Z,94.50
2018-04-17T03:30:38.915Z,94.40
2018-04-17T03:33:08.024Z,94.40
2018-04-17T03:35:37.070Z,94.50
2018-04-17T03:38:06.148Z,94.60
2018-04-17T03:40:35.192Z,94.60
2018-04-17T03:43:04.266Z,94.70
2018-04-17T03:45:34.097Z,94.60
2018-04-17T03:48:03.167Z,94.70
2018-04-17T03:50:32.246Z,94.60
2018-04-17T03:53:01.283Z,94.50
2018-04-17T03:55:30.354Z,94.50
2018-04-17T03:57:59.420Z,94.60
2018-04-17T04:00:28.448Z,94.60
2018-04-17T04:02:58.282Z,94.70
2018-04-17T04:05:27.328Z,94.70
2018-04-17T04:07:56.395Z,94.70
2018-04-17T04:10:25.464Z,94.50
2018-04-17T04:12:54.506Z,94.50
2018-04-17T04:15:23.596Z,94.60
2018-04-17T04:18:10.332Z,94.50
2018-04-17T04:20:58.053Z,94.40
2018-04-17T04:23:44.954Z,94.40
2018-04-17T04:26:31.954Z,94.50
2018-04-17T04:29:01.039Z,94.80
2018-04-17T04:31:30.069Z,94.90
2018-04-17T04:33:59.099Z,95.00
2018-04-17T04:36:28.183Z,95.00
2018-04-17T04:38:58.043Z,95.10
2018-04-17T04:41:27.098Z,95.00
2018-04-17T04:43:56.175Z,95.20
2018-04-17T04:46:25.990Z,95.40
2018-04-17T04:48:55.816Z,95.50
2018-04-17T04:51:24.894Z,95.50
2018-04-17T04:53:54.732Z,95.70
2018-04-17T04:56:23.799Z,95.70
2018-04-17T04:58:53.650Z,95.70
2018-04-17T05:01:22.694Z,95.60
2018-04-17T05:03:51.803Z,95.50
2018-04-17T05:06:21.604Z,95.30
2018-04-17T05:08:51.440Z,95.40
2018-04-17T05:11:20.499Z,95.40
2018-04-17T05:13:49.573Z,95.40
2018-04-17T05:16:18.617Z,95.30
2018-04-17T05:18:48.467Z,95.00
2018-04-17T05:21:17.598Z,95.00
2018-04-17T05:23:46.636Z,94.90
2018-04-17T05:26:15.674Z,94.90
2018-04-17T05:28:44.779Z,94.90
2018-04-17T05:31:13.898Z,95.00
2018-04-17T05:33:42.908Z,94.90
2018-04-17T05:36:11.995Z,94.70
2018-04-17T05:38:41.795Z,94.50
2018-04-17T05:41:11.628Z,94.50
2018-04-17T05:43:40.698Z,94.50
2018-04-17T05:46:10.554Z,94.30
2018-04-17T05:48:39.618Z,94.30
2018-04-17T05:51:09.447Z,94.20
2018-04-17T05:53:38.512Z,94.10
2018-04-17T05:56:08.309Z,94.20
2018-04-17T05:58:37.408Z,94.20
2018-04-17T06:01:06.438Z,94.10
2018-04-17T06:03:35.469Z,94.00
2018-04-17T06:06:04.545Z,93.90
2018-04-17T06:08:33.606Z,93.80
2018-04-17T06:11:03.421Z,93.70
2018-04-17T06:13:33.245Z,93.40
2018-04-17T06:16:02.304Z,93.40
2018-04-17T06:18:31.384Z,93.30
2018-04-17T06:21:00.420Z,93.60
2018-04-17T06:23:29.503Z,93.00
2018-04-17T06:25:59.346Z,93.10
2018-04-17T06:28:29.138Z,93.10
2018-04-17T06:30:58.983Z,93.20
2018-04-17T06:33:28.037Z,93.20
2018-04-17T06:35:57.884Z,93.30
2018-04-17T06:38:26.968Z,93.30
2018-04-17T06:40:56.011Z,93.30
2018-04-17T06:43:25.110Z,93.30
2018-04-17T06:45:54.155Z,93.30
2018-04-17T06:48:23.235Z,93.20
2018-04-17T06:50:52.296Z,93.00
2018-04-17T06:53:21.379Z,92.70
2018-04-17T06:55:50.445Z,92.90
2018-04-17T06:58:19.518Z,92.40
2018-04-17T07:00:48.581Z,92.70
2018-04-17T07:03:17.662Z,92.50
2018-04-17T07:05:46.727Z,92.30
2018-04-17T07:08:15.776Z,92.20
2018-04-17T07:10:45.653Z,92.00
2018-04-17T07:13:14.677Z,91.90
2018-04-17T07:15:44.540Z,91.70
2018-04-17T07:18:13.605Z,91.70
2018-04-17T07:20:42.650Z,91.30
2018-04-17T07:23:11.734Z,91.40
2018-04-17T07:25:40.781Z,91.40
2018-04-17T07:28:10.619Z,90.90
2018-04-17T07:30:39.671Z,90.50
2018-04-17T07:33:08.740Z,90.30
2018-04-17T07:35:37.824Z,90.10
2018-04-17T07:38:06.869Z,89.30
2018-04-17T07:40:36.816Z,90.20
2018-04-17T07:43:05.801Z,90.20
2018-04-17T07:45:34.889Z,90.20
2018-04-17T07:48:23.395Z,89.00
2018-04-17T07:50:52.465Z,88.40
2018-04-17T07:53:21.495Z,87.90
2018-04-17T07:55:51.347Z,86.60
2018-04-17T07:58:20.398Z,86.60
2018-04-17T08:00:49.438Z,86.20
2018-04-17T08:03:18.525Z,87.00
2018-04-17T08:05:47.572Z,86.20
2018-04-17T08:08:16.713Z,86.60
2018-04-17T08:10:45.732Z,87.20
2018-04-17T08:13:14.775Z,87.60
2018-04-17T08:15:44.619Z,85.80
2018-04-17T08:18:13.686Z,85.80
2018-04-17T08:20:42.746Z,84.50
2018-04-17T08:23:11.777Z,84.20
2018-04-17T08:25:41.641Z,84.20
2018-04-17T08:28:10.689Z,84.20
2018-04-17T08:30:40.533Z,83.10
2018-04-17T08:33:09.568Z,82.90
2018-04-17T08:35:38.677Z,83.10
2018-04-17T08:38:08.493Z,80.30
2018-04-17T08:40:38.318Z,80.40
2018-04-17T08:43:07.395Z,80.30
2018-04-17T08:45:36.424Z,78.30
2018-04-17T08:48:05.505Z,78.10
2018-04-17T08:50:34.545Z,71.80
2018-04-17T08:53:03.604Z,70.70
2018-04-17T08:55:32.639Z,71.90
2018-04-17T08:58:01.713Z,69.90
2018-04-17T09:00:30.756Z,66.30
2018-04-17T09:03:00.592Z,62.40
2018-04-17T09:05:29.636Z,62.40
2018-04-17T09:07:58.698Z,63.80
2018-04-17T09:10:27.772Z,63.80
2018-04-17T09:12:56.848Z,65.00
2018-04-17T09:15:26.677Z,62.30
2018-04-17T09:17:55.727Z,62.20
2018-04-17T09:20:24.796Z,62.70
2018-04-17T09:22:53.854Z,62.20
2018-04-17T09:25:23.680Z,63.60
2018-04-17T09:27:52.747Z,63.60
2018-04-17T09:30:21.827Z,64.70
2018-04-17T09:32:50.881Z,63.00
2018-04-17T09:35:19.926Z,62.50
2018-04-17T09:37:48.982Z,58.30
2018-04-17T09:40:18.044Z,57.60
2018-04-17T09:42:47.117Z,58.70
2018-04-17T09:45:16.176Z,58.60
2018-04-17T09:47:45.250Z,59.80
2018-04-17T09:50:14.291Z,59.00
2018-04-17T09:52:43.377Z,57.70
2018-04-17T09:55:12.399Z,57.70
2018-04-17T09:57:42.233Z,58.60
2018-04-17T10:00:11.312Z,58.50
2018-04-17T10:02:41.144Z,58.00
2018-04-17T10:05:10.193Z,58.00
2018-04-17T10:07:39.224Z,59.10
2018-04-17T10:10:08.288Z,59.20
2018-04-17T10:12:38.116Z,59.40
2018-04-17T10:15:07.953Z,58.80
2018-04-17T10:17:37.018Z,58.80
2018-04-17T10:20:06.864Z,59.90
2018-04-17T10:22:35.900Z,59.90
2018-04-17T10:25:04.968Z,56.80
2018-04-17T10:27:34.100Z,58.20
2018-04-17T10:30:03.912Z,58.40
2018-04-17T10:32:32.974Z,57.80
2018-04-17T10:35:02.021Z,57.10
2018-04-17T10:37:31.906Z,57.50
2018-04-17T10:40:00.939Z,57.60
2018-04-17T10:42:30.010Z,58.20
2018-04-17T10:44:59.853Z,58.40
2018-04-17T10:47:28.885Z,58.30
2018-04-17T10:49:57.956Z,58.50
2018-04-17T10:52:27.024Z,57.70
2018-04-17T10:54:56.088Z,58.90
2018-04-17T10:57:25.130Z,58.50
2018-04-17T10:59:54.166Z,58.40
2018-04-17T11:02:23.230Z,58.30
2018-04-17T11:04:52.323Z,59.50
2018-04-17T11:07:21.329Z,58.00
2018-04-17T11:09:50.396Z,58.40
2018-04-17T11:12:19.438Z,58.20
2018-04-17T11:14:48.515Z,59.00
2018-04-17T11:17:17.556Z,59.20
2018-04-17T11:19:47.386Z,56.20
2018-04-17T11:22:16.428Z,56.20
2018-04-17T11:24:45.508Z,56.60
2018-04-17T11:27:14.542Z,56.60
2018-04-17T11:29:44.404Z,56.00
2018-04-17T11:32:13.450Z,56.00
2018-04-17T11:34:42.549Z,56.40
2018-04-17T11:37:11.548Z,56.20
2018-04-17T11:39:41.371Z,54.00
2018-04-17T11:42:11.217Z,54.00
2018-04-17T11:44:40.235Z,54.00
2018-04-17T11:47:09.350Z,54.60
2018-04-17T11:49:38.342Z,54.80
2018-04-17T11:52:08.172Z,54.60
2018-04-17T11:54:37.971Z,52.90
2018-04-17T11:57:07.804Z,52.40
2018-04-17T11:59:36.852Z,52.30
2018-04-17T12:02:05.924Z,51.10
2018-04-17T12:04:34.957Z,50.30
2018-04-17T12:07:04.084Z,49.90
2018-04-17T12:09:33.137Z,49.30
2018-04-17T12:12:02.309Z,47.80
2018-04-17T12:14:31.316Z,48.00
2018-04-17T12:17:00.388Z,48.80
2018-04-17T12:19:30.221Z,48.40
2018-04-17T12:21:59.356Z,48.50
2018-04-17T12:24:29.189Z,48.50
2018-04-17T12:26:58.249Z,48.50
2018-04-17T12:29:27.322Z,48.80
2018-04-17T12:31:56.352Z,49.50
2018-04-17T12:34:26.200Z,47.20
2018-04-17T12:36:55.250Z,47.20
2018-04-17T12:39:25.073Z,44.20
2018-04-17T12:41:54.877Z,44.10
2018-04-17T12:44:24.705Z,45.10
2018-04-17T12:46:53.764Z,45.00
2018-04-17T12:49:22.838Z,43.20
2018-04-17T12:51:51.953Z,40.70
2018-04-17T12:54:20.992Z,41.20
2018-04-17T12:56:50.016Z,40.70
2018-04-17T12:59:19.116Z,38.90
2018-04-17T13:01:48.159Z,38.40
2018-04-17T13:04:17.985Z,38.00
2018-04-17T13:06:47.040Z,38.00
2018-04-17T13:09:16.840Z,36.50
2018-04-17T13:11:45.903Z,35.90
2018-04-17T13:14:14.964Z,37.40
2018-04-17T13:16:44.787Z,40.40
2018-04-17T13:19:13.823Z,40.30
2018-04-17T13:21:42.877Z,40.20
2018-04-17T13:24:11.925Z,40.30
2018-04-17T13:26:40.996Z,40.30
2018-04-17T13:29:10.080Z,40.80
2018-04-17T13:31:39.132Z,41.50
2018-04-17T13:34:08.942Z,41.40
2018-04-17T13:36:38.765Z,40.70
2018-04-17T13:39:08.704Z,39.20
2018-04-17T13:41:37.769Z,39.10
2018-04-17T13:44:07.628Z,40.70
2018-04-17T13:46:36.691Z,40.60
2018-04-17T13:49:05.731Z,42.10
2018-04-17T13:51:34.813Z,42.40
2018-04-17T13:54:03.916Z,42.90
2018-04-17T13:56:32.919Z,41.60
2018-04-17T13:59:01.993Z,41.80
2018-04-17T14:01:31.040Z,42.20
2018-04-17T14:04:00.860Z,41.10
2018-04-17T14:06:30.711Z,42.40
2018-04-17T14:08:59.763Z,42.40
2018-04-17T14:11:29.576Z,42.70
2018-04-17T14:13:59.414Z,41.30
2018-04-17T14:16:28.514Z,41.30
2018-04-17T14:18:57.573Z,40.80
2018-04-17T14:21:27.384Z,41.10
2018-04-17T14:23:57.241Z,39.90
2018-04-17T14:26:26.298Z,39.90
2018-04-17T14:28:56.134Z,41.10
2018-04-17T14:31:25.189Z,41.00
2018-04-17T14:33:54.248Z,39.90
2018-04-17T14:36:23.299Z,40.20
2018-04-17T14:38:53.140Z,40.50
2018-04-17T14:41:22.235Z,40.50
2018-04-17T14:43:51.278Z,40.70
2018-04-17T14:46:20.333Z,40.20
2018-04-17T14:48:49.369Z,40.10
2018-04-17T14:51:19.227Z,41.00
2018-04-17T14:53:48.261Z,41.00
2018-04-17T14:56:17.305Z,40.80
2018-04-17T14:58:46.374Z,40.40
2018-04-17T15:01:16.171Z,39.80
2018-04-17T15:03:45.249Z,39.80
2018-04-17T15:06:14.304Z,39.20
2018-04-17T15:08:43.368Z,39.40
2018-04-17T15:11:13.160Z,39.30
2018-04-17T15:13:42.252Z,39.10
2018-04-17T15:16:11.308Z,38.70
2018-04-17T15:18:40.364Z,38.20
2018-04-17T15:21:10.168Z,36.80
2018-04-17T15:23:40.032Z,37.60
2018-04-17T15:26:09.067Z,37.60
2018-04-17T15:28:38.145Z,36.80
2018-04-17T15:31:07.172Z,35.90
2018-04-17T15:33:37.054Z,35.70
2018-04-17T15:36:06.093Z,35.70
2018-04-17T15:38:35.128Z,35.60
2018-04-17T15:41:04.223Z,35.70
2018-04-17T15:43:33.244Z,35.00
2018-04-17T15:46:02.424Z,35.40
2018-04-17T15:48:31.481Z,34.40
2018-04-17T15:51:00.540Z,33.60
2018-04-17T15:53:30.387Z,33.60
2018-04-17T15:56:00.194Z,34.00
2018-04-17T15:58:29.233Z,34.00
2018-04-17T16:00:58.297Z,33.80
2018-04-17T16:03:27.342Z,33.50
2018-04-17T16:05:56.386Z,33.30
2018-04-17T16:08:25.476Z,33.10
2018-04-17T16:10:54.516Z,33.20
2018-04-17T16:13:23.553Z,33.60
2018-04-17T16:15:52.701Z,33.20
2018-04-17T16:18:21.766Z,32.70
2018-04-17T16:20:50.838Z,32.80
2018-04-17T16:23:19.904Z,33.70
2018-04-17T16:25:48.940Z,34.20
2018-04-17T16:28:18.030Z,34.80
2018-04-17T16:30:47.131Z,35.20
2018-04-17T16:33:16.177Z,35.20
2018-04-17T16:35:45.240Z,35.20
2018-04-17T16:38:14.322Z,35.40
2018-04-17T16:40:43.368Z,37.10
2018-04-17T16:43:13.200Z,39.40
2018-04-17T16:45:42.252Z,39.20
2018-04-17T16:48:11.316Z,40.60
2018-04-17T16:50:40.358Z,41.00
2018-04-17T16:53:09.458Z,41.20
2018-04-17T16:55:38.489Z,41.50
2018-04-17T16:58:07.575Z,42.00
2018-04-17T17:03:11.628Z,43.90
2018-04-17T17:05:40.673Z,43.80
2018-04-17T17:08:10.514Z,44.00
2018-04-17T17:10:39.580Z,44.00
2018-04-17T17:13:08.628Z,44.70
2018-04-17T17:15:37.707Z,45.60
2018-04-17T17:18:06.749Z,45.10
2018-04-17T17:20:35.808Z,45.30
2018-04-17T17:23:04.906Z,45.90
2018-04-17T17:25:33.966Z,46.10
2018-04-17T17:28:02.997Z,46.40
2018-04-17T17:30:32.078Z,47.00
2018-04-17T17:33:01.162Z,47.40
2018-04-17T17:35:30.244Z,47.30
2018-04-17T17:37:59.312Z,47.70
2018-04-17T17:40:28.377Z,48.20
2018-04-17T17:42:57.426Z,49.20
2018-04-17T17:45:27.256Z,49.00
2018-04-17T17:47:56.300Z,49.00
2018-04-17T17:50:25.367Z,48.90
2018-04-17T17:52:54.419Z,49.20
2018-04-17T17:55:24.244Z,50.30
2018-04-17T17:57:53.292Z,50.30
2018-04-17T18:00:22.364Z,50.90
2018-04-17T18:02:51.452Z,50.90
2018-04-17T18:05:20.514Z,51.10
2018-04-17T18:07:49.615Z,51.10
2018-04-17T18:10:19.442Z,51.70
2018-04-17T18:12:48.518Z,51.70
2018-04-17T18:15:17.652Z,51.90
2018-04-17T18:17:46.697Z,52.40
2018-04-17T18:20:15.775Z,52.50
2018-04-17T18:22:45.613Z,53.10
2018-04-17T18:25:14.795Z,53.00
2018-04-17T18:27:44.675Z,52.30
2018-04-17T18:30:13.823Z,52.30
2018-04-17T18:32:43.771Z,52.80
2018-04-17T18:35:12.950Z,52.80
2018-04-17T18:37:42.169Z,53.00
2018-04-17T18:40:11.481Z,52.80
2018-04-17T18:42:40.739Z,52.90
2018-04-17T18:45:10.788Z,53.50
2018-04-17T18:47:40.033Z,53.50
2018-04-17T18:50:09.202Z,53.70
2018-04-17T18:52:38.286Z,53.90
2018-04-17T18:55:07.313Z,54.20
2018-04-17T18:57:37.157Z,54.70
2018-04-17T19:00:06.230Z,54.70
2018-04-17T19:02:36.079Z,54.30
2018-04-17T19:05:05.161Z,54.30
2018-04-17T19:07:34.196Z,54.60
2018-04-17T19:10:03.273Z,55.10
2018-04-17T19:12:32.377Z,55.20
2018-04-17T19:15:01.435Z,55.50
2018-04-17T19:17:30.528Z,55.40
2018-04-17T19:19:59.572Z,55.50
2018-04-17T19:22:28.647Z,55.50
2018-04-17T19:24:57.728Z,56.00
2018-04-17T19:27:26.802Z,56.10
2018-04-17T19:29:55.856Z,56.40
2018-04-17T19:32:24.934Z,56.10
2018-04-17T19:34:53.971Z,56.20
2018-04-17T19:37:23.455Z,56.20
2018-04-17T19:39:52.495Z,55.70
2018-04-17T19:42:21.593Z,56.50
2018-04-17T19:44:50.651Z,56.60
2018-04-17T19:47:20.481Z,56.70
2018-04-17T19:49:49.541Z,56.70
2018-04-17T19:52:18.658Z,56.70
2018-04-17T19:54:48.467Z,57.20
2018-04-17T19:57:18.456Z,57.30
2018-04-17T19:59:47.563Z,57.30
2018-04-17T20:02:16.613Z,57.20
2018-04-17T20:04:45.679Z,57.20
2018-04-17T20:07:14.744Z,57.10
2018-04-17T20:09:43.804Z,57.30
2018-04-17T20:12:12.869Z,57.30
2018-04-17T20:14:42.033Z,57.60
2018-04-17T20:17:11.024Z,57.60
2018-04-17T20:19:40.116Z,57.80
2018-04-17T20:22:09.160Z,57.80
2018-04-17T20:24:38.261Z,58.10
2018-04-17T20:27:07.342Z,57.70
2018-04-17T20:29:36.511Z,57.90
2018-04-17T20:32:06.336Z,58.20
2018-04-17T20:34:36.160Z,58.20
2018-04-17T20:37:05.233Z,58.20
2018-04-17T20:39:35.040Z,58.60
2018-04-17T20:42:04.912Z,58.70
2018-04-17T20:44:33.972Z,58.70
2018-04-17T20:47:03.065Z,58.60
2018-04-17T20:49:32.117Z,58.50
2018-04-17T20:52:01.176Z,58.50
2018-04-17T20:54:30.251Z,58.60
2018-04-17T20:57:00.047Z,58.80
2018-04-17T20:59:29.881Z,58.90
2018-04-17T21:01:58.965Z,58.90
2018-04-17T21:04:28.788Z,58.60
2018-04-17T21:06:57.858Z,58.60
2018-04-17T21:09:27.692Z,59.10
2018-04-17T21:11:56.738Z,59.00
2018-04-17T21:14:25.822Z,59.40
2018-04-17T21:16:54.888Z,59.50
2018-04-17T21:19:23.990Z,59.40
2018-04-17T21:21:53.028Z,59.40
2018-04-17T21:24:22.840Z,59.70
2018-04-17T21:26:52.694Z,59.90
2018-04-17T21:29:21.744Z,59.30
2018-04-17T21:31:50.835Z,59.10
2018-04-17T21:34:19.879Z,59.20
2018-04-17T21:36:48.918Z,59.10
2018-04-17T21:39:17.989Z,58.90
2018-04-17T21:41:47.029Z,58.80
2018-04-17T21:44:16.862Z,58.70
2018-04-17T21:46:45.931Z,58.70
2018-04-17T21:49:15.773Z,58.90
2018-04-17T21:51:44.823Z,58.90
2018-04-17T21:54:13.899Z,58.60
2018-04-17T21:56:42.936Z,58.90
2018-04-17T21:59:12.794Z,59.20
2018-04-17T22:01:41.848Z,59.20
2018-04-17T22:04:11.685Z,59.50
2018-04-17T22:06:40.737Z,59.40
2018-04-17T22:09:09.809Z,59.40
2018-04-17T22:11:38.840Z,59.30
2018-04-17T22:14:08.691Z,59.60
2018-04-17T22:16:37.723Z,59.60
2018-04-17T22:19:06.813Z,59.60
2018-04-17T22:21:35.879Z,59.90
2018-04-17T22:24:04.932Z,59.70
2018-04-17T22:26:34.754Z,59.40
2018-04-17T22:29:03.811Z,59.40
2018-04-17T22:31:32.877Z,59.30
2018-04-17T22:34:01.939Z,59.60
2018-04-17T22:36:31.762Z,59.60
2018-04-17T22:39:00.846Z,59.50
2018-04-17T22:41:29.895Z,59.90
2018-04-17T22:43:58.969Z,59.80
2018-04-17T22:46:28.020Z,60.00
2018-04-17T22:48:57.844Z,60.70
2018-04-17T22:51:26.918Z,60.70
2018-04-17T22:53:56.767Z,61.10
2018-04-17T22:56:25.804Z,61.00
2018-04-17T22:58:54.889Z,60.80
2018-04-17T23:01:23.925Z,60.60
2018-04-17T23:03:52.976Z,60.40
2018-04-17T23:06:22.045Z,61.40
2018-04-17T23:08:51.091Z,61.30
2018-04-17T23:11:20.920Z,60.60
2018-04-17T23:13:49.959Z,60.60
2018-04-17T23:16:19.055Z,60.80
2018-04-17T23:18:48.100Z,61.30
2018-04-17T23:21:17.949Z,61.50
2018-04-17T23:23:47.008Z,61.30
2018-04-17T23:26:16.813Z,61.40
2018-04-17T23:28:46.640Z,61.50
2018-04-17T23:31:15.680Z,61.50
2018-04-17T23:33:44.748Z,62.00
2018-04-17T23:36:13.795Z,61.60
2018-04-17T23:38:42.884Z,61.20
2018-04-17T23:41:11.983Z,61.70
2018-04-17T23:43:41.076Z,62.20
2018-04-17T23:46:10.123Z,62.30
2018-04-17T23:48:39.227Z,62.70
2018-04-17T23:51:08.282Z,62.70
2018-04-17T23:53:38.109Z,63.30
2018-04-17T23:56:07.171Z,63.30
2018-04-17T23:58:36.249Z,64.00
